Latest Weather Observations for Maria Island

IDT60801

Issued at 9:11 pm EDT Friday 13 December 2019 (issued every 10 minutes, with the page automatically refreshed every 10 minutes)

About weather observations | Map of weather stations | Latest weather observations for TAS | Other Formats
Station Details ID: 092124 Name: MARIA ISLAND (POINT LESUEUR) Lat: -42.66 Lon: 148.02 Height: 28.0 m
Data from the previous 72 hours. | See also: Recent months at Maria Island
Date/Time
EDT
Temp
°C
App
Temp
°C
Dew
Point
°C
Rel
Hum
%
Delta-T
°C
Wind Press
QNH
hPa
Press
MSL
hPa
Rain since
9am
mm
Dir  Spd
km/h
Gust
km/h
Spd
kts
Gust
kts
13/09:00pm 13.4 10.5 10.9 85 1.3 E 17 20 9 11 1005.1 1005.0 0.0
13/08:30pm 14.7 12.3 9.9 73 2.5 ESE 13 22 7 12 1004.5 1004.4 0.0
13/08:00pm 16.9 13.6 9.6 62 3.8 W 17 22 9 12 1004.3 1004.2 0.0
13/07:30pm 15.9 13.7 10.7 71 2.8 SW 13 15 7 8 1004.1 1004.0 0.0
13/07:00pm 16.1 11.7 10.4 69 3.0 WSW 24 30 13 16 1003.9 1003.8 0.0
13/06:30pm 17.9 14.2 9.5 58 4.4 WSW 19 26 10 14 1004.0 1003.9 0.0
13/06:00pm 17.9 14.2 9.3 57 4.5 W 19 24 10 13 1004.0 1003.9 0.0
13/05:30pm 18.2 13.8 9.0 55 4.8 W 22 32 12 17 1003.9 1003.8 0.0
13/05:00pm 18.9 13.7 8.8 52 5.3 WNW 26 35 14 19 1003.9 1003.8 0.0
13/04:30pm 19.4 13.8 8.7 50 5.6 W 28 35 15 19 1004.0 1003.9 0.0
13/04:00pm 19.0 12.0 8.4 50 5.5 W 35 43 19 23 1004.2 1004.1 0.0
13/03:30pm 19.2 12.2 8.5 50 5.6 W 35 44 19 24 1004.5 1004.4 0.0
13/03:00pm 19.6 11.8 8.3 48 5.9 W 39 48 21 26 1004.7 1004.6 0.0
13/02:30pm 19.3 13.1 8.0 48 5.8 W 30 35 16 19 1004.9 1004.8 0.0
13/02:00pm 19.9 15.1 8.9 49 5.8 W 24 32 13 17 1005.2 1005.1 0.0
13/01:30pm 18.9 12.3 7.7 48 5.7 W 32 43 17 23 1005.3 1005.2 0.0
13/01:20pm 19.1 14.6 8.4 50 5.5 WNW 22 33 12 18 1005.5 1005.4 0.0
13/01:00pm 18.2 15.8 7.0 48 5.6 N 9 13 5 7 1005.9 1005.8 0.0
13/12:30pm 17.9 13.8 7.9 52 5.1 WNW 19 28 10 15 1006.4 1006.3 0.0
13/12:00pm 17.1 13.2 6.9 51 5.1 NW 17 37 9 20 1007.0 1006.9 0.0
13/11:30am 16.3 10.5 6.4 52 4.8 WNW 26 32 14 17 1007.3 1007.2 0.0
13/11:00am 16.1 12.2 7.1 55 4.5 NNW 17 22 9 12 1007.6 1007.5 0.0
13/10:30am 15.6 11.0 6.6 55 4.4 NNW 20 26 11 14 1008.2 1008.1 0.0
13/10:00am 14.8 9.7 6.1 56 4.2 NNW 22 33 12 18 1008.6 1008.5 0.0
13/09:30am 14.8 9.9 5.3 53 4.5 NW 20 26 11 14 1009.0 1008.9 0.0
13/09:00am 14.0 9.7 5.1 55 4.2 NNW 17 24 9 13 1009.6 1009.5 1.8
13/08:30am 13.4 8.6 4.8 56 4.0 NW 19 30 10 16 1009.8 1009.7 1.8
13/08:00am 12.7 8.3 4.9 59 3.6 NW 17 26 9 14 1010.1 1010.0 1.8
13/07:30am 12.1 7.0 4.1 58 3.6 NW 20 26 11 14 1009.9 1009.8 1.8
13/07:00am 11.9 8.1 3.9 58 3.6 NNW 13 19 7 10 1010.2 1010.1 1.8
13/06:30am 11.6 7.7 3.6 58 3.5 NW 13 20 7 11 1010.5 1010.4 1.8
13/06:00am 11.5 6.8 3.0 56 3.7 NW 17 28 9 15 1010.5 1010.4 1.8
13/05:30am 11.4 7.0 2.9 56 3.7 WNW 15 20 8 11 1010.5 1010.4 1.8
13/05:00am 11.3 6.6 2.9 56 3.7 WNW 17 26 9 14 1010.5 1010.4 1.8
13/04:30am 11.3 6.2 2.9 56 3.7 WNW 19 26 10 14 1010.7 1010.6 1.8
13/04:00am 11.3 6.0 2.1 53 3.9 NW 19 24 10 13 1010.9 1010.8 1.8
13/03:30am 11.3 6.4 2.1 53 3.9 NW 17 24 9 13 1011.5 1011.4 1.8
13/03:00am 11.4 5.2 2.2 53 3.9 NW 24 30 13 16 1011.9 1011.8 1.8
13/02:30am 11.7 6.3 2.5 53 4.0 NW 20 26 11 14 1012.2 1012.1 1.8
13/02:00am 11.8 6.6 2.5 53 4.0 WNW 19 28 10 15 1012.3 1012.2 1.8
13/01:30am 11.9 7.7 1.5 49 4.4 WNW 13 17 7 9 1012.8 1012.7 1.8
13/01:00am 11.8 7.6 1.7 50 4.3 W 13 17 7 9 1013.2 1013.1 1.8
13/12:30am 12.0 6.7 1.9 50 4.3 W 19 24 10 13 1013.5 1013.5 1.8
13/12:00am 12.2 7.3 1.8 49 4.5 W 17 24 9 13 1013.7 1013.7 1.8
 
Date/Time
EDT
Temp
°C
App
Temp
°C
Dew
Point
°C
Rel
Hum
%
Delta-T
°C
Wind Press
QNH
hPa
Press
MSL
hPa
Rain since
9am
mm
Dir  Spd
km/h
Gust
km/h
Spd
kts
Gust
kts
12/11:30pm 12.2 7.0 2.6 52 4.2 WSW 19 26 10 14 1013.8 1013.8 1.8
12/11:00pm 12.4 5.8 2.3 50 4.4 WSW 26 30 14 16 1013.6 1013.6 1.8
12/10:30pm 12.5 7.1 2.7 51 4.3 SW 20 30 11 16 1013.9 1013.9 1.8
12/10:00pm 12.4 7.6 2.8 52 4.2 SW 17 20 9 11 1013.6 1013.6 1.8
12/09:30pm 12.8 6.7 2.9 51 4.4 SW 24 28 13 15 1013.5 1013.5 1.8
12/09:00pm 13.0 5.9 3.7 53 4.2 SW 30 35 16 19 1013.1 1013.0 1.8
12/08:30pm 12.9 6.4 6.5 65 3.1 SSW 30 33 16 18 1012.9 1012.8 1.8
12/08:00pm 12.7 4.3 5.8 63 3.2 SSW 39 43 21 23 1012.4 1012.3 1.8
12/07:30pm 13.2 5.6 5.9 61 3.5 SSW 35 44 19 24 1012.0 1011.9 1.8
12/07:00pm 13.5 6.5 5.9 60 3.6 SSW 32 39 17 21 1011.9 1011.8 1.8
12/06:30pm 13.6 6.0 6.0 60 3.6 S 35 44 19 24 1011.5 1011.4 1.8
12/06:00pm 14.2 6.4 6.8 61 3.6 S 37 43 20 23 1011.2 1011.1 1.8
12/05:30pm 14.4 6.3 7.0 61 3.6 S 39 43 21 23 1011.0 1010.9 1.8
12/05:00pm 14.8 6.5 5.9 55 4.3 S 39 48 21 26 1010.8 1010.7 1.8
12/04:30pm 14.7 7.1 7.5 62 3.6 S 37 48 20 26 1010.6 1010.5 1.8
12/04:00pm 15.4 6.8 6.7 56 4.3 S 41 46 22 25 1010.4 1010.3 1.8
12/03:30pm 14.3 7.2 6.2 58 3.9 S 33 43 18 23 1010.6 1010.5 1.8
12/03:00pm 15.1 6.3 7.4 60 3.8 S 43 50 23 27 1010.5 1010.4 1.8
12/02:30pm 14.1 3.9 6.9 62 3.5 SSW 50 59 27 32 1010.3 1010.2 1.8
12/02:23pm 14.4 5.8 6.5 59 3.8 S 41 56 22 30 1010.4 1010.3 1.8
12/02:00pm 15.4 9.5 7.4 59 4.0 S 28 37 15 20 1010.4 1010.3 1.8
12/01:30pm 13.5 6.0 8.1 70 2.7 S 37 50 20 27 1010.6 1010.5 1.8
12/01:11pm 12.8 6.9 7.5 70 2.6 SSW 28 61 15 33 1010.5 1010.4 1.8
12/01:00pm 13.9 8.1 6.3 60 3.6 S 26 30 14 16 1010.6 1010.5 1.8
12/12:30pm 13.3 7.7 7.1 66 3.0 SSW 26 33 14 18 1010.7 1010.6 1.8
12/12:00pm 13.1 2.9 6.9 66 3.0 SSW 50 59 27 32 1010.3 1010.2 1.8
12/11:30am 13.9 6.8 7.9 67 3.0 SW 35 48 19 26 1010.2 1010.1 1.8
12/11:00am 13.3 8.3 9.7 79 1.8 SSW 26 37 14 20 1010.1 1010.0 1.8
12/10:30am 11.2 3.1 10.0 92 0.6 SSW 43 52 23 28 1010.0 1009.9 1.8
12/10:00am 12.7 3.3 7.0 68 2.8 SW 46 69 25 37 1009.3 1009.2 0.0
12/09:53am 15.2 7.0 6.7 57 4.1 WSW 39 57 21 31 1008.7 1008.6 0.0
12/09:30am 15.5 10.1 6.2 54 4.5 WSW 24 44 13 24 1008.5 1008.4 0.0
12/09:00am 14.9 10.8 8.6 66 3.2 WNW 20 30 11 16 1008.6 1008.5 0.0
12/08:30am 14.3 9.3 8.0 66 3.1 W 24 33 13 18 1008.4 1008.3 0.0
12/08:00am 14.3 9.8 8.7 69 2.8 WSW 22 30 12 16 1008.7 1008.6 0.0
12/07:30am 13.4 11.7 10.0 80 1.8 WNW 9 13 5 7 1008.6 1008.5 0.0
12/07:00am 13.6 11.5 11.0 84 1.4 WNW 13 17 7 9 1008.6 1008.5 0.0
12/06:30am 12.6 9.8 10.1 85 1.3 WNW 15 17 8 9 1008.4 1008.3 0.0
12/06:00am 12.3 9.9 10.0 86 1.2 WNW 13 15 7 8 1008.3 1008.2 0.0
12/05:30am 12.2 11.1 9.9 86 1.2 W 6 7 3 4 1008.6 1008.5 0.0
12/05:00am 12.3 10.6 10.0 86 1.2 NW 9 11 5 6 1008.5 1008.4 0.0
12/04:30am 12.4 11.2 10.3 87 1.1 NNW 7 15 4 8 1008.5 1008.4 0.0
12/04:00am 12.2 11.1 10.1 87 1.1 WNW 6 7 3 4 1008.8 1008.7 0.0
12/03:30am 13.0 12.1 11.2 89 0.9 NNW 7 11 4 6 1009.1 1009.0 0.0
12/03:00am 13.0 10.6 11.4 90 0.8 NNW 15 20 8 11 1009.3 1009.2 0.0
12/02:30am 12.9 11.1 12.0 94 0.5 N 13 22 7 12 1009.8 1009.7 0.0
12/02:00am 12.7 12.0 11.9 95 0.4 NW 7 9 4 5 1010.6 1010.5 0.0
12/01:30am 12.4 11.8 11.6 95 0.4 NE 6 9 3 5 1011.1 1011.0 0.0
12/01:00am 12.8 11.7 12.0 95 0.4 N 9 11 5 6 1011.5 1011.4 0.0
12/12:30am 12.9 12.4 12.0 94 0.5 NNW 6 7 3 4 1011.9 1011.8 0.0
12/12:00am 12.8 11.2 11.7 93 0.6 NW 11 13 6 7 1012.5 1012.4 0.0
 
Date/Time
EDT
Temp
°C
App
Temp
°C
Dew
Point
°C
Rel
Hum
%
Delta-T
°C
Wind Press
QNH
hPa
Press
MSL
hPa
Rain since
9am
mm
Dir  Spd
km/h
Gust
km/h
Spd
kts
Gust
kts
11/11:30pm 13.1 12.6 12.0 93 0.6 NNW 6 7 3 4 1012.7 1012.6 0.0
11/11:00pm 13.6 13.0 12.3 92 0.7 NNW 7 9 4 5 1012.9 1012.8 0.0
11/10:30pm 13.8 13.4 12.4 91 0.8 NNW 6 7 3 4 1013.2 1013.1 0.0
11/10:00pm 13.9 12.5 12.1 89 1.0 NNW 11 11 6 6 1013.7 1013.7 0.0
11/09:30pm 14.1 12.6 12.0 87 1.1 NNW 11 13 6 7 1013.6 1013.6 0.0
11/09:00pm 14.4 13.7 11.9 85 1.3 WNW 7 9 4 5 1013.5 1013.5 0.0
11/08:30pm 14.7 14.1 11.8 83 1.6 N 6 6 3 3 1013.6 1013.6 0.0
11/08:00pm 15.0 14.5 12.1 83 1.6 N 6 9 3 5 1013.9 1013.9 0.0
11/07:30pm 15.3 12.7 11.9 80 1.8 N 17 22 9 12 1013.6 1013.6 0.0
11/07:00pm 14.8 10.9 12.1 84 1.5 N 24 26 13 14 1013.0 1012.9 0.0
11/06:30pm 15.0 12.0 12.1 83 1.6 N 19 22 10 12 1013.3 1013.2 0.0
11/06:00pm 15.2 10.8 11.8 80 1.8 N 26 30 14 16 1013.0 1012.9 0.0
11/05:30pm 16.7 12.9 12.3 75 2.4 N 24 26 13 14 1013.4 1013.4 0.0
11/05:00pm 15.3 12.2 12.2 82 1.7 N 20 24 11 13 1013.7 1013.7 0.0
11/04:30pm 16.0 12.8 11.8 76 2.3 N 20 24 11 13 1014.2 1014.2 0.0
11/04:00pm 17.6 12.9 12.1 70 3.0 NNW 28 32 15 17 1013.9 1013.9 0.0
11/03:30pm 17.7 13.8 10.8 64 3.7 N 22 28 12 15 1014.0 1014.0 0.0
11/03:00pm 18.6 16.7 10.4 59 4.4 N 11 15 6 8 1014.3 1014.3 0.0
11/02:30pm 17.9 16.5 10.8 63 3.8 N 9 15 5 8 1014.6 1014.6 0.0
11/02:00pm 17.8 15.3 11.1 65 3.6 N 15 20 8 11 1014.7 1014.7 0.0
11/01:30pm 19.0 17.9 10.6 58 4.5 WNW 7 11 4 6 1015.0 1015.0 0.0
11/01:00pm 18.7 17.6 10.5 59 4.4 N 7 9 4 5 1015.2 1015.2 0.0
11/12:30pm 17.8 16.8 10.9 64 3.7 N 7 9 4 5 1015.5 1015.5 0.0
11/12:00pm 16.9 15.8 10.5 66 3.4 N 7 9 4 5 1015.9 1015.9 0.0
11/11:30am 16.2 14.8 10.9 71 2.8 N 9 9 5 5 1016.2 1016.2 0.0
11/11:00am 15.6 12.8 11.2 75 2.4 N 17 19 9 10 1016.6 1016.6 0.0
11/10:30am 15.1 12.2 11.1 77 2.1 N 17 20 9 11 1016.9 1016.9 0.0
11/10:00am 14.8 11.6 11.4 80 1.8 N 19 20 10 11 1016.9 1016.9 0.0
11/09:30am 14.4 10.4 10.6 78 2.0 N 22 26 12 14 1016.9 1016.9 0.0
11/09:00am 14.1 9.7 10.5 79 1.9 N 24 26 13 14 1017.2 1017.2 0.0
11/08:30am 13.9 9.9 10.5 80 1.8 N 22 26 12 14 1017.3 1017.3 0.0
11/08:00am 13.9 9.5 10.5 80 1.8 N 24 28 13 15 1017.2 1017.2 0.0
11/07:30am 13.6 10.2 10.4 81 1.7 N 19 20 10 11 1017.3 1017.3 0.0
11/07:00am 12.7 10.3 10.1 84 1.3 NNW 13 15 7 8 1017.5 1017.5 0.0
11/06:30am 12.1 9.2 9.7 85 1.2 NNW 15 17 8 9 1017.4 1017.4 0.0
11/06:00am 12.1 8.8 9.5 84 1.3 NNW 17 19 9 10 1017.4 1017.4 0.0
11/05:30am 11.9 8.0 9.3 84 1.3 NNW 20 22 11 12 1017.4 1017.4 0.0
11/05:00am 12.7 7.8 9.9 83 1.4 N 26 30 14 16 1017.3 1017.3 0.0
11/04:30am 12.5 7.5 9.7 83 1.4 N 26 33 14 18 1017.2 1017.2 0.0
11/04:00am 12.5 8.7 9.7 83 1.4 N 20 28 11 15 1017.4 1017.4 0.0
11/03:30am 12.5 8.6 9.5 82 1.5 N 20 24 11 13 1017.7 1017.7 0.0
11/03:00am 12.6 9.3 9.6 82 1.5 N 17 20 9 11 1018.2 1018.2 0.0
11/02:30am 12.4 10.2 9.2 81 1.6 N 11 15 6 8 1018.5 1018.5 0.0
11/02:00am 12.3 9.6 9.0 80 1.7 NNE 13 15 7 8 1018.6 1018.6 0.0
11/01:30am 12.2 9.5 8.9 80 1.7 N 13 15 7 8 1018.9 1018.9 0.0
11/01:00am 12.2 9.5 9.0 81 1.6 N 13 19 7 10 1019.0 1019.0 0.0
11/12:30am 11.2 9.7 8.4 83 1.4 NNE 6 7 3 4 1019.4 1019.4 0.0
11/12:00am 11.3 9.8 8.3 82 1.5 NE 6 7 3 4 1019.6 1019.6 0.0
 
Date/Time
EDT
Temp
°C
App
Temp
°C
Dew
Point
°C
Rel
Hum
%
Delta-T
°C
Wind Press
QNH
hPa
Press
MSL
hPa
Rain since
9am
mm
Dir  Spd
km/h
Gust
km/h
Spd
kts
Gust
kts
10/11:30pm 11.3 8.9 8.7 84 1.3 NE 11 13 6 7 1019.8 1019.8 0.0
10/11:00pm 11.2 9.2 8.6 84 1.3 NE 9 13 5 7 1019.9 1019.9 0.0
10/10:30pm 11.3 9.7 8.7 84 1.3 NE 7 11 4 6 1019.8 1019.8 0.0
10/10:00pm 11.6 8.5 9.0 84 1.3 ENE 15 19 8 10 1019.8 1019.8 0.0
10/09:30pm 12.0 8.6 9.0 82 1.5 E 17 20 9 11 1019.5 1019.5 0.0

Other formats

Comma delimited format used in spreadsheet applications
http://www.bom.gov.au/fwo/IDT60801/IDT60801.95988.axf

JavaScript Object Notation format (JSON) in row-major order
http://www.bom.gov.au/fwo/IDT60801/IDT60801.95988.json

Data quality

Most of these data are generated automatically and are frequently updated. Quality checks on data are not normally performed. It is possible for incorrect values to appear. Refer to information at About Latest Weather Observations and please check the disclaimer before using these data.